createdAt,value
2024-03-17T00:00:19.941Z,83.40
2024-03-17T00:05:43.216Z,83.78
2024-03-17T00:10:50.829Z,83.90
2024-03-17T00:15:55.210Z,84.31
2024-03-17T00:20:58.220Z,83.63
2024-03-17T00:26:01.688Z,83.33
2024-03-17T00:31:05.084Z,83.94
2024-03-17T00:36:08.420Z,84.13
2024-03-17T00:41:11.205Z,85.15
2024-03-17T00:46:14.527Z,85.64
2024-03-17T00:51:18.036Z,86.02
2024-03-17T00:56:21.682Z,86.34
2024-03-17T01:01:26.231Z,86.55
2024-03-17T01:06:29.178Z,86.70
2024-03-17T01:11:32.228Z,86.74
2024-03-17T01:16:35.208Z,86.58
2024-03-17T01:21:38.627Z,86.60
2024-03-17T01:26:41.720Z,85.88
2024-03-17T01:31:44.726Z,85.83
2024-03-17T01:36:47.625Z,84.90
2024-03-17T01:41:50.732Z,85.08
2024-03-17T01:46:54.604Z,85.08
2024-03-17T01:51:57.656Z,84.62
2024-03-17T01:57:00.676Z,84.56
2024-03-17T02:02:33.568Z,84.49
2024-03-17T02:07:36.572Z,84.21
2024-03-17T02:12:39.680Z,83.97
2024-03-17T02:17:43.293Z,83.73
2024-03-17T02:22:46.511Z,83.70
2024-03-17T02:27:49.813Z,83.62
2024-03-17T02:32:56.298Z,83.19
2024-03-17T02:37:59.344Z,82.87
2024-03-17T02:43:02.313Z,82.81
2024-03-17T02:48:07.662Z,82.73
2024-03-17T02:53:10.679Z,82.24
2024-03-17T02:58:13.512Z,81.89
2024-03-17T03:03:16.472Z,81.61
2024-03-17T03:08:20.090Z,81.36
2024-03-17T03:13:22.988Z,81.03
2024-03-17T03:18:25.989Z,80.62
2024-03-17T03:23:28.991Z,80.21
2024-03-17T03:28:33.638Z,79.96
2024-03-17T03:33:37.093Z,79.78
2024-03-17T03:38:40.472Z,79.67
2024-03-17T03:43:44.406Z,79.69
2024-03-17T03:48:47.407Z,79.41
2024-03-17T03:53:51.923Z,78.84
2024-03-17T03:58:55.057Z,78.98
2024-03-17T04:03:58.264Z,78.93
2024-03-17T04:09:01.260Z,78.82
2024-03-17T04:14:04.169Z,78.78
2024-03-17T04:19:08.004Z,78.69
2024-03-17T04:24:10.989Z,78.75
2024-03-17T04:29:13.995Z,78.64
2024-03-17T04:34:17.720Z,78.58
2024-03-17T04:39:21.228Z,78.37
2024-03-17T04:44:24.339Z,78.33
2024-03-17T04:49:27.346Z,78.39
2024-03-17T04:54:32.994Z,78.79
2024-03-17T04:59:37.640Z,79.33
2024-03-17T05:04:41.157Z,79.40
2024-03-17T05:09:45.300Z,79.60
2024-03-17T05:14:48.188Z,79.83
2024-03-17T05:19:51.198Z,80.80
2024-03-17T05:24:55.033Z,80.94
2024-03-17T05:29:57.916Z,80.55
2024-03-17T05:35:01.362Z,80.29
2024-03-17T05:40:06.104Z,80.54
2024-03-17T05:45:12.263Z,80.21
2024-03-17T05:50:15.328Z,79.89
2024-03-17T05:55:18.225Z,79.74
2024-03-17T06:00:22.649Z,79.61
2024-03-17T06:05:25.699Z,79.24
2024-03-17T06:10:29.217Z,79.06
2024-03-17T06:15:32.325Z,78.80
2024-03-17T06:20:35.490Z,78.53
2024-03-17T06:25:40.272Z,78.11
2024-03-17T06:30:50.967Z,77.17
2024-03-17T06:35:53.854Z,77.32
2024-03-17T06:40:56.655Z,77.14
2024-03-17T06:46:00.679Z,76.86
2024-03-17T06:51:04.096Z,76.96
2024-03-17T06:56:07.410Z,76.68
2024-03-17T07:01:10.849Z,76.67
2024-03-17T07:06:13.752Z,76.62
2024-03-17T07:11:18.443Z,76.74
2024-03-17T07:16:26.483Z,76.52
2024-03-17T07:21:29.797Z,76.64
2024-03-17T07:26:32.907Z,76.29
2024-03-17T07:31:36.338Z,76.40
2024-03-17T07:36:40.956Z,76.55
2024-03-17T07:41:43.969Z,76.33
2024-03-17T07:46:47.177Z,76.05
2024-03-17T07:51:50.179Z,76.16
2024-03-17T07:56:53.383Z,76.41
2024-03-17T08:01:58.967Z,76.64
2024-03-17T08:07:02.053Z,76.91
2024-03-17T08:12:05.628Z,77.01
2024-03-17T08:17:08.882Z,77.40
2024-03-17T08:22:12.097Z,77.66
2024-03-17T08:27:15.910Z,77.86
2024-03-17T08:32:19.486Z,77.95
2024-03-17T08:37:38.959Z,77.95
2024-03-17T08:42:42.986Z,77.32
2024-03-17T08:47:46.581Z,77.68
2024-03-17T08:52:52.304Z,77.69
2024-03-17T08:57:55.439Z,77.75
2024-03-17T09:02:59.156Z,77.63
2024-03-17T09:08:02.884Z,77.41
2024-03-17T09:13:05.991Z,77.02
2024-03-17T09:18:10.500Z,76.73
2024-03-17T09:23:15.744Z,75.88
2024-03-17T09:28:19.252Z,75.39
2024-03-17T09:33:23.140Z,75.60
2024-03-17T09:38:26.644Z,75.39
2024-03-17T09:43:30.470Z,75.02
2024-03-17T09:48:33.871Z,74.21
2024-03-17T09:53:37.219Z,74.34
2024-03-17T09:58:41.310Z,74.04
2024-03-17T10:03:44.312Z,73.09
2024-03-17T10:08:49.015Z,73.03
2024-03-17T10:14:03.054Z,72.90
2024-03-17T10:19:11.862Z,70.03
2024-03-17T10:24:16.094Z,70.39
2024-03-17T10:29:37.202Z,70.94
2024-03-17T10:34:41.097Z,69.79
2024-03-17T10:39:45.805Z,67.75
2024-03-17T10:44:50.715Z,66.35
2024-03-17T10:49:56.283Z,65.93
2024-03-17T10:55:04.346Z,65.97
2024-03-17T11:00:12.229Z,66.45
2024-03-17T11:05:32.529Z,66.18
2024-03-17T11:10:39.353Z,66.41
2024-03-17T11:15:42.774Z,65.74
2024-03-17T11:21:10.108Z,66.05
2024-03-17T11:26:27.345Z,64.60
2024-03-17T11:31:39.341Z,63.88
2024-03-17T11:36:42.269Z,64.22
2024-03-17T11:41:49.164Z,63.75
2024-03-17T11:47:08.978Z,63.89
2024-03-17T11:52:16.385Z,64.21
2024-03-17T11:57:26.385Z,63.96
2024-03-17T12:02:32.940Z,64.16
2024-03-17T12:07:43.519Z,63.88
2024-03-17T12:12:49.167Z,63.97
2024-03-17T12:17:55.355Z,63.47
2024-03-17T12:22:59.366Z,61.96
2024-03-17T12:28:02.885Z,61.89
2024-03-17T12:33:10.734Z,60.76
2024-03-17T12:38:24.768Z,60.13
2024-03-17T12:43:28.601Z,60.36
2024-03-17T12:48:31.601Z,62.85
2024-03-17T12:53:35.373Z,62.04
2024-03-17T12:58:57.066Z,61.68
2024-03-17T13:04:09.688Z,62.24
2024-03-17T13:09:13.398Z,63.01
2024-03-17T13:14:18.946Z,63.08
2024-03-17T13:19:23.588Z,63.39
2024-03-17T13:24:26.880Z,63.33
2024-03-17T13:29:30.117Z,63.60
2024-03-17T13:34:33.331Z,63.49
2024-03-17T13:39:37.357Z,64.34
2024-03-17T13:44:41.018Z,66.03
2024-03-17T13:49:45.246Z,67.36
2024-03-17T13:54:49.244Z,68.89
2024-03-17T13:59:53.582Z,69.40
2024-03-17T14:04:57.396Z,69.02
2024-03-17T14:10:01.553Z,68.76
2024-03-17T14:15:12.170Z,68.11
2024-03-17T14:20:15.866Z,67.74
2024-03-17T14:25:19.690Z,67.80
2024-03-17T14:30:23.211Z,68.01
2024-03-17T14:35:28.145Z,68.35
2024-03-17T14:40:31.374Z,69.44
2024-03-17T14:45:36.153Z,69.64
2024-03-17T14:50:39.722Z,70.44
2024-03-17T14:55:44.929Z,69.04
2024-03-17T15:00:48.201Z,69.20
2024-03-17T15:05:53.816Z,69.44
2024-03-17T15:10:57.779Z,70.15
2024-03-17T15:16:02.857Z,70.92
2024-03-17T15:21:08.689Z,71.09
2024-03-17T15:26:12.920Z,71.35
2024-03-17T15:31:16.576Z,72.25
2024-03-17T15:36:21.288Z,73.06
2024-03-17T15:41:24.713Z,72.04
2024-03-17T15:46:28.850Z,72.07
2024-03-17T15:51:33.469Z,72.48
2024-03-17T15:56:36.991Z,72.97
2024-03-17T16:01:41.496Z,74.70
2024-03-17T16:06:45.244Z,76.00
2024-03-17T16:11:48.971Z,76.70
2024-03-17T16:16:52.277Z,76.38
2024-03-17T16:21:56.419Z,77.81
2024-03-17T16:26:59.819Z,77.97
2024-03-17T16:32:03.951Z,78.33
2024-03-17T16:37:06.863Z,78.93
2024-03-17T16:42:10.720Z,79.94
2024-03-17T16:47:32.733Z,80.79
2024-03-17T16:52:37.277Z,80.75
2024-03-17T16:57:40.162Z,81.03
2024-03-17T17:02:45.434Z,81.61
2024-03-17T17:07:48.522Z,82.22
2024-03-17T17:12:52.004Z,82.17
2024-03-17T17:17:58.531Z,81.23
2024-03-17T17:23:01.729Z,81.31
2024-03-17T17:28:05.614Z,82.35
2024-03-17T17:33:09.088Z,82.24
2024-03-17T17:38:12.499Z,81.66
2024-03-17T17:43:16.202Z,81.83
2024-03-17T17:48:19.201Z,82.12
2024-03-17T17:53:22.411Z,81.90
2024-03-17T17:58:27.884Z,82.50
2024-03-17T18:03:31.389Z,83.04
2024-03-17T18:08:34.510Z,82.41
2024-03-17T18:13:38.065Z,81.91
2024-03-17T18:18:41.743Z,82.86
2024-03-17T18:23:45.747Z,82.97
2024-03-17T18:28:52.542Z,82.20
2024-03-17T18:33:59.026Z,82.49
2024-03-17T18:39:01.972Z,82.98
2024-03-17T18:44:05.351Z,82.76
2024-03-17T18:49:12.302Z,82.95
2024-03-17T18:54:15.348Z,82.91
2024-03-17T18:59:20.523Z,83.29
2024-03-17T19:04:25.451Z,83.72
2024-03-17T19:09:30.650Z,84.08
2024-03-17T19:14:33.508Z,84.41
2024-03-17T19:19:39.197Z,84.48
2024-03-17T19:24:43.007Z,84.27
2024-03-17T19:29:48.147Z,84.35
2024-03-17T19:34:52.528Z,84.62
2024-03-17T19:39:56.624Z,83.89
2024-03-17T19:44:59.823Z,83.94
2024-03-17T19:50:02.948Z,84.43
2024-03-17T19:55:06.133Z,84.40
2024-03-17T20:00:11.293Z,84.26
2024-03-17T20:05:14.401Z,83.81
2024-03-17T20:10:18.943Z,84.63
2024-03-17T20:15:24.558Z,84.71
2024-03-17T20:20:29.453Z,84.49
2024-03-17T20:25:33.578Z,84.83
2024-03-17T20:30:37.408Z,85.17
2024-03-17T20:35:40.611Z,85.21
2024-03-17T20:40:44.132Z,84.92
2024-03-17T20:45:47.273Z,85.35
2024-03-17T20:50:53.612Z,85.28
2024-03-17T20:55:57.397Z,85.13
2024-03-17T21:01:01.050Z,84.78
2024-03-17T21:06:05.276Z,85.33
2024-03-17T21:11:09.742Z,85.28
2024-03-17T21:16:13.030Z,84.74
2024-03-17T21:21:17.275Z,84.92
2024-03-17T21:26:20.697Z,85.17
2024-03-17T21:31:23.581Z,85.22
2024-03-17T21:36:27.611Z,84.82
2024-03-17T21:41:31.946Z,84.96
2024-03-17T21:46:35.358Z,84.80
2024-03-17T21:51:39.888Z,84.72
2024-03-17T21:56:42.908Z,84.87
2024-03-17T22:01:48.773Z,84.98
2024-03-17T22:06:52.304Z,84.50
2024-03-17T22:11:55.506Z,84.65
2024-03-17T22:17:01.397Z,84.18
2024-03-17T22:22:04.709Z,84.13
2024-03-17T22:27:08.625Z,84.17
2024-03-17T22:32:12.089Z,84.20
2024-03-17T22:37:15.346Z,84.49
2024-03-17T22:42:18.557Z,84.53
2024-03-17T22:47:21.864Z,84.91
2024-03-17T22:52:24.868Z,85.01
2024-03-17T22:57:28.994Z,85.28
2024-03-17T23:02:32.406Z,84.67
2024-03-17T23:07:35.314Z,84.95
2024-03-17T23:12:38.412Z,85.18
2024-03-17T23:17:41.360Z,85.29
2024-03-17T23:22:50.469Z,85.33
2024-03-17T23:27:54.492Z,85.16
2024-03-17T23:32:57.803Z,84.84
2024-03-17T23:38:01.830Z,85.19
2024-03-17T23:43:05.866Z,84.64
2024-03-17T23:48:09.330Z,84.76
2024-03-17T23:53:12.277Z,85.19
2024-03-17T23:58:15.276Z,85.40
